No. 1 Naniwa Maru — JL6112 — position and weather

sailwx.info

Track history (hours):
 
Tides and Currents Weather Stations Pressure Air Temp Water Temp Dewpoint Dewpoint Depression Visibility Wind Speed Wind Dir Waves Ship Positions

No. 1 Naniwa Maru

Last reported at 2018-Feb-20 04:19 UTC. Time now 2018-Feb-23 10:29 UTC.
Position N 34°15' E 134°55'.

Length 44 m.

Type: Tanker. MMSI: 431500016.

Date/timePositionNaut miles runAvg speedWind from/ knotsBaromVisibWave heightAir tempDewpointWater temp
2018-Feb-20 04:19N 34°15' E 134°55'4 8.8
2018-Feb-20 03:55N 34°17' E 134°58'3 8.0
2018-Feb-20 03:30N 34°20' E 134°60'8 8.5
2018-Feb-20 02:34N 34°25' E 135°07'1 8.7
2018-Feb-20 02:29N 34°26' E 135°08'4 8.7
2018-Feb-20 01:59N 34°28' E 135°13'4 9.1
2018-Feb-20 01:30N 34°30' E 135°17'5 9.4
2018-Feb-20 01:00N 34°32' E 135°23'2 3.0
2018-Feb-20 00:25N 34°32' E 135°25'0 0.0
2018-Feb-19 23:55N 34°32' E 135°25'0 0.0
2018-Feb-19 23:25N 34°32' E 135°25'0 0.0
2018-Feb-19 22:55N 34°32' E 135°25'1 1.5
2018-Feb-19 22:30N 34°32' E 135°24'3 6.8
2018-Feb-19 22:00N 34°35' E 135°23'4 7.1
2018-Feb-19 21:30N 34°39' E 135°25'3 6.2
2018-Feb-19 21:00N 34°38' E 135°28'1 1.0
2018-Feb-19 20:11N 34°38' E 135°29'0 0.2
2018-Feb-19 19:59N 34°38' E 135°29'0 0.0
2018-Feb-19 19:23N 34°38' E 135°29'0 0.0
2018-Feb-19 18:59N 34°38' E 135°29'0 0.0
2018-Feb-19 18:23N 34°38' E 135°29'0 0.0
2018-Feb-19 17:59N 34°38' E 135°29'0 0.0
2018-Feb-19 17:29N 34°38' E 135°29'0 0.0
2018-Feb-19 16:59N 34°38' E 135°29'0 0.0
2018-Feb-19 16:23N 34°38' E 135°29'0 0.0
2018-Feb-19 15:59N 34°38' E 135°29'0 0.0
2018-Feb-19 15:29N 34°38' E 135°29'0 0.0
2018-Feb-19 14:59N 34°38' E 135°29'0 0.0
2018-Feb-19 14:17N 34°38' E 135°29'0 0.0
2018-Feb-19 13:47N 34°38' E 135°29'0 0.0
2018-Feb-19 13:29N 34°38' E 135°29'0 0.0
2018-Feb-19 12:59N 34°38' E 135°29'0 0.0
2018-Feb-19 12:29N 34°38' E 135°29'0 0.0
2018-Feb-19 11:53N 34°38' E 135°29'0 0.0
2018-Feb-19 11:29N 34°38' E 135°29'0 0.0
2018-Feb-19 10:59N 34°38' E 135°29'0 0.0
2018-Feb-19 10:29N 34°38' E 135°29'0 0.0
2018-Feb-19 09:59N 34°38' E 135°29'0 0.0
2018-Feb-19 09:29N 34°38' E 135°29'2 3.7
2018-Feb-19 09:00N 34°38' E 135°27'3 6.7
2018-Feb-19 08:30N 34°38' E 135°23'4 8.3
2018-Feb-19 08:00N 34°36' E 135°18'5 9.0
2018-Feb-19 07:29N 34°36' E 135°12'4 8.9
2018-Feb-19 07:00N 34°35' E 135°07'611.2
2018-Feb-19 06:29N 34°37' E 135°01'  
Track history (hours):
 
Tides and Currents Weather Stations Pressure Air Temp Water Temp Dewpoint Dewpoint Depression Visibility Wind Speed Wind Dir Waves Ship Positions

No. 1 Naniwa Maru

Last reported at 2018-Feb-20 04:19 UTC. Time now 2018-Feb-23 10:29 UTC.
Position N 34°15' E 134°55'.

Length 44 m.

Type: Tanker. MMSI: 431500016.

Date/timePositionNaut miles runAvg speedWind from/ knotsBaromVisibWave heightAir tempDewpointWater temp
2018-Feb-20 04:19N 34°15' E 134°55'4 8.8
2018-Feb-20 03:55N 34°17' E 134°58'3 8.0
2018-Feb-20 03:30N 34°20' E 134°60'8 8.5
2018-Feb-20 02:34N 34°25' E 135°07'1 8.7
2018-Feb-20 02:29N 34°26' E 135°08'4 8.7
2018-Feb-20 01:59N 34°28' E 135°13'4 9.1
2018-Feb-20 01:30N 34°30' E 135°17'5 9.4
2018-Feb-20 01:00N 34°32' E 135°23'2 3.0
2018-Feb-20 00:25N 34°32' E 135°25'0 0.0
2018-Feb-19 23:55N 34°32' E 135°25'0 0.0
2018-Feb-19 23:25N 34°32' E 135°25'0 0.0
2018-Feb-19 22:55N 34°32' E 135°25'1 1.5
2018-Feb-19 22:30N 34°32' E 135°24'3 6.8
2018-Feb-19 22:00N 34°35' E 135°23'4 7.1
2018-Feb-19 21:30N 34°39' E 135°25'3 6.2
2018-Feb-19 21:00N 34°38' E 135°28'1 1.0
2018-Feb-19 20:11N 34°38' E 135°29'0 0.2
2018-Feb-19 19:59N 34°38' E 135°29'0 0.0
2018-Feb-19 19:23N 34°38' E 135°29'0 0.0
2018-Feb-19 18:59N 34°38' E 135°29'0 0.0
2018-Feb-19 18:23N 34°38' E 135°29'0 0.0
2018-Feb-19 17:59N 34°38' E 135°29'0 0.0
2018-Feb-19 17:29N 34°38' E 135°29'0 0.0
2018-Feb-19 16:59N 34°38' E 135°29'0 0.0
2018-Feb-19 16:23N 34°38' E 135°29'0 0.0
2018-Feb-19 15:59N 34°38' E 135°29'0 0.0
2018-Feb-19 15:29N 34°38' E 135°29'0 0.0
2018-Feb-19 14:59N 34°38' E 135°29'0 0.0
2018-Feb-19 14:17N 34°38' E 135°29'0 0.0
2018-Feb-19 13:47N 34°38' E 135°29'0 0.0
2018-Feb-19 13:29N 34°38' E 135°29'0 0.0
2018-Feb-19 12:59N 34°38' E 135°29'0 0.0
2018-Feb-19 12:29N 34°38' E 135°29'0 0.0
2018-Feb-19 11:53N 34°38' E 135°29'0 0.0
2018-Feb-19 11:29N 34°38' E 135°29'0 0.0
2018-Feb-19 10:59N 34°38' E 135°29'0 0.0
2018-Feb-19 10:29N 34°38' E 135°29'0 0.0
2018-Feb-19 09:59N 34°38' E 135°29'0 0.0
2018-Feb-19 09:29N 34°38' E 135°29'2 3.7
2018-Feb-19 09:00N 34°38' E 135°27'3 6.7
2018-Feb-19 08:30N 34°38' E 135°23'4 8.3
2018-Feb-19 08:00N 34°36' E 135°18'5 9.0
2018-Feb-19 07:29N 34°36' E 135°12'4 8.9
2018-Feb-19 07:00N 34°35' E 135°07'611.2
2018-Feb-19 06:29N 34°37' E 135°01'  

Dump ship's entire track history